createdAt,value
2018-03-04T00:02:02.190Z,36.63
2018-03-04T00:07:05.864Z,35.80
2018-03-04T00:12:09.114Z,27.30
2018-03-04T00:17:12.347Z,28.50
2018-03-04T00:22:15.558Z,34.27
2018-03-04T00:27:18.764Z,37.63
2018-03-04T00:32:21.976Z,30.53
2018-03-04T00:37:25.195Z,29.93
2018-03-04T00:42:28.807Z,31.70
2018-03-04T00:47:32.850Z,30.70
2018-03-04T00:52:36.340Z,38.47
2018-03-04T00:57:40.052Z,39.67
2018-03-04T01:02:43.305Z,35.20
2018-03-04T01:07:46.548Z,32.70
2018-03-04T01:12:50.928Z,32.10
2018-03-04T01:17:54.282Z,29.17
2018-03-04T01:22:57.515Z,35.10
2018-03-04T01:28:01.047Z,33.17
2018-03-04T01:33:04.277Z,35.97
2018-03-04T01:38:07.597Z,47.00
2018-03-04T01:43:11.239Z,39.60
2018-03-04T01:48:14.504Z,38.80
2018-03-04T01:53:17.844Z,44.77
2018-03-04T01:58:21.061Z,39.77
2018-03-04T02:03:24.375Z,50.20
2018-03-04T02:08:27.625Z,42.23
2018-03-04T02:13:32.266Z,40.93
2018-03-04T02:18:35.971Z,54.00
2018-03-04T02:23:39.289Z,59.93
2018-03-04T02:28:42.884Z,53.80
2018-03-04T02:33:46.105Z,77.50
2018-03-04T02:38:49.831Z,77.00
2018-03-04T02:43:53.065Z,122.20
2018-03-04T02:48:56.287Z,147.23
2018-03-04T02:53:59.509Z,85.40
2018-03-04T02:59:02.837Z,123.90
2018-03-04T03:04:06.546Z,190.00
2018-03-04T03:09:09.770Z,160.17
2018-03-04T03:14:13.376Z,83.97
2018-03-04T03:19:16.991Z,125.73
2018-03-04T03:24:20.633Z,105.00
2018-03-04T03:29:23.901Z,125.20
2018-03-04T03:34:27.612Z,121.17
2018-03-04T03:39:31.374Z,104.90
2018-03-04T03:44:34.621Z,97.37
2018-03-04T03:49:37.834Z,88.67
2018-03-04T03:54:41.357Z,61.40
2018-03-04T03:59:44.630Z,52.70
2018-03-04T04:04:47.865Z,47.37
2018-03-04T04:09:51.174Z,37.07
2018-03-04T04:14:54.887Z,28.10
2018-03-04T04:19:58.105Z,33.47
2018-03-04T04:25:01.745Z,27.57
2018-03-04T04:30:05.014Z,30.57
2018-03-04T04:35:08.253Z,28.77
2018-03-04T04:40:11.459Z,29.50
2018-03-04T04:45:14.730Z,32.67
2018-03-04T04:50:18.142Z,29.07
2018-03-04T04:55:21.457Z,31.40
2018-03-04T05:00:25.090Z,34.67
2018-03-04T05:05:28.295Z,41.17
2018-03-04T05:10:31.526Z,37.67
2018-03-04T05:15:34.744Z,35.83
2018-03-04T05:20:38.043Z,30.70
2018-03-04T05:25:41.258Z,35.83
2018-03-04T05:30:44.495Z,30.03
2018-03-04T05:35:48.125Z,28.33
2018-03-04T05:40:51.737Z,30.23
2018-03-04T05:45:56.056Z,37.63
2018-03-04T05:50:59.341Z,35.37
2018-03-04T05:56:02.569Z,36.40
2018-03-04T06:01:05.840Z,32.90
2018-03-04T06:06:09.067Z,35.30
2018-03-04T06:11:12.305Z,27.07
2018-03-04T06:16:15.931Z,25.83
2018-03-04T06:21:19.384Z,39.20
2018-03-04T06:26:22.617Z,29.03
2018-03-04T06:31:25.847Z,21.33
2018-03-04T06:36:29.519Z,21.27
2018-03-04T06:41:32.772Z,21.33
2018-03-04T06:46:36.164Z,29.37
2018-03-04T06:51:39.973Z,20.73
2018-03-04T06:56:43.209Z,22.33
2018-03-04T07:01:46.440Z,23.30
2018-03-04T07:06:49.769Z,21.30
2018-03-04T07:11:53.188Z,19.33
2018-03-04T07:16:56.500Z,28.17
2018-03-04T07:21:59.731Z,37.80
2018-03-04T07:27:03.406Z,31.97
2018-03-04T07:32:06.624Z,23.97
2018-03-04T07:37:09.942Z,30.33
2018-03-04T07:42:13.157Z,26.07
2018-03-04T07:47:16.784Z,25.73
2018-03-04T07:52:20.009Z,24.87
2018-03-04T07:57:23.272Z,25.23
2018-03-04T08:02:27.065Z,23.60
2018-03-04T08:07:30.275Z,20.03
2018-03-04T08:12:33.482Z,16.73
2018-03-04T08:17:36.703Z,14.50
2018-03-04T08:22:39.909Z,15.47
2018-03-04T08:27:54.996Z,15.60
2018-03-04T08:32:58.196Z,11.57
2018-03-04T08:38:01.519Z,17.33
2018-03-04T08:43:05.148Z,19.03
2018-03-04T08:48:08.432Z,16.77
2018-03-04T08:53:12.047Z,15.60
2018-03-04T08:58:15.751Z,11.43
2018-03-04T09:03:19.058Z,10.77
2018-03-04T09:08:22.264Z,16.10
2018-03-04T09:13:25.471Z,14.10
2018-03-04T09:18:29.080Z,13.87
2018-03-04T09:23:32.693Z,15.53
2018-03-04T09:28:35.964Z,23.43
2018-03-04T09:33:39.176Z,19.47
2018-03-04T09:38:42.387Z,18.87
2018-03-04T09:43:45.588Z,21.20
2018-03-04T09:48:49.821Z,25.63
2018-03-04T09:53:53.071Z,24.87
2018-03-04T09:58:56.699Z,25.30
2018-03-04T10:03:59.930Z,25.93
2018-03-04T10:09:03.149Z,25.90
2018-03-04T10:14:06.488Z,27.37
2018-03-04T10:19:10.087Z,29.33
2018-03-04T10:24:13.729Z,27.00
2018-03-04T10:29:16.948Z,27.37
2018-03-04T10:34:20.165Z,20.67
2018-03-04T10:39:23.382Z,23.03
2018-03-04T10:44:26.642Z,18.87
2018-03-04T10:49:30.001Z,20.03
2018-03-04T10:54:33.352Z,23.57
2018-03-04T10:59:37.635Z,21.50
2018-03-04T11:04:41.066Z,21.27
2018-03-04T11:09:44.856Z,17.83
2018-03-04T11:14:48.190Z,15.40
2018-03-04T11:19:51.404Z,15.10
2018-03-04T11:24:55.054Z,13.83
2018-03-04T11:29:58.290Z,10.02
2018-03-04T11:35:01.629Z,8.48
2018-03-04T11:40:04.929Z,5.35
2018-03-04T11:45:08.186Z,5.07
2018-03-04T11:50:11.409Z,3.83
2018-03-04T11:55:14.744Z,3.12
2018-03-04T12:00:18.020Z,3.95
2018-03-04T12:05:21.247Z,4.57
2018-03-04T12:10:24.468Z,4.47
2018-03-04T12:15:28.093Z,4.12
2018-03-04T12:20:31.716Z,5.78
2018-03-04T12:25:34.993Z,10.85
2018-03-04T12:30:38.300Z,11.35
2018-03-04T12:35:41.952Z,11.60
2018-03-04T12:40:45.166Z,9.23
2018-03-04T12:45:48.369Z,10.10
2018-03-04T12:50:51.731Z,12.98
2018-03-04T12:55:54.943Z,9.45
2018-03-04T13:00:58.265Z,9.35
2018-03-04T13:06:01.491Z,11.40
2018-03-04T13:11:04.729Z,10.30
2018-03-04T13:16:07.956Z,10.40
2018-03-04T13:21:11.298Z,12.15
2018-03-04T13:26:14.523Z,11.60
2018-03-04T13:31:17.735Z,11.07
2018-03-04T13:36:20.951Z,10.13
2018-03-04T13:41:24.217Z,10.27
2018-03-04T13:46:27.493Z,9.68
2018-03-04T13:51:30.704Z,9.53
2018-03-04T13:56:34.412Z,6.32
2018-03-04T14:01:37.616Z,3.63
2018-03-04T14:06:40.832Z,5.53
2018-03-04T14:11:44.485Z,5.22
2018-03-04T14:16:47.854Z,5.53
2018-03-04T14:21:51.483Z,4.37
2018-03-04T14:26:55.133Z,5.60
2018-03-04T14:31:58.504Z,5.13
2018-03-04T14:37:02.506Z,7.23
2018-03-04T14:42:05.990Z,7.13
2018-03-04T14:47:09.195Z,4.97
2018-03-04T14:52:13.020Z,5.30
2018-03-04T14:57:16.274Z,5.87
2018-03-04T15:02:19.549Z,5.32
2018-03-04T15:07:22.755Z,5.35
2018-03-04T15:12:26.470Z,4.80
2018-03-04T15:17:29.729Z,5.87
2018-03-04T15:22:32.973Z,5.47
2018-03-04T15:27:36.293Z,6.47
2018-03-04T15:32:39.696Z,5.62
2018-03-04T15:37:42.938Z,4.93
2018-03-04T15:42:46.283Z,5.63
2018-03-04T15:47:49.641Z,5.35
2018-03-04T15:52:53.254Z,5.33
2018-03-04T15:57:56.991Z,5.40
2018-03-04T16:03:00.354Z,4.25
2018-03-04T16:08:04.070Z,5.03
2018-03-04T16:13:07.359Z,4.00
2018-03-04T16:18:10.714Z,3.17
2018-03-04T16:23:14.065Z,3.30
2018-03-04T16:28:17.285Z,5.20
2018-03-04T16:33:20.709Z,3.73
2018-03-04T16:38:24.428Z,5.13
2018-03-04T16:43:28.037Z,5.57
2018-03-04T16:48:31.345Z,3.60
2018-03-04T16:53:34.561Z,5.43
2018-03-04T16:58:38.267Z,7.03
2018-03-04T17:03:41.483Z,3.27
2018-03-04T17:08:46.042Z,4.63
2018-03-04T17:13:49.260Z,3.57
2018-03-04T17:18:52.557Z,5.63
2018-03-04T17:23:55.851Z,2.57
2018-03-04T17:28:59.059Z,4.40
2018-03-04T17:34:02.292Z,8.90
2018-03-04T17:39:06.146Z,5.10
2018-03-04T17:44:09.355Z,4.37
2018-03-04T17:49:12.585Z,5.13
2018-03-04T17:54:16.277Z,3.53
2018-03-04T17:59:19.521Z,5.90
2018-03-04T18:04:22.754Z,5.27
2018-03-04T18:09:25.992Z,8.77
2018-03-04T18:14:29.209Z,3.83
2018-03-04T18:19:33.460Z,5.23
2018-03-04T18:24:46.112Z,6.80
2018-03-04T18:29:50.178Z,4.73
2018-03-04T18:34:53.825Z,5.50
2018-03-04T18:39:57.511Z,4.83
2018-03-04T18:45:00.867Z,8.30
2018-03-04T18:50:04.182Z,5.53
2018-03-04T18:55:07.391Z,6.30
2018-03-04T19:00:10.642Z,5.47
2018-03-04T19:05:13.880Z,8.23
2018-03-04T19:10:17.203Z,8.90
2018-03-04T19:15:20.402Z,9.93
2018-03-04T19:20:23.863Z,8.07
2018-03-04T19:25:27.115Z,11.70
2018-03-04T19:30:30.339Z,6.13
2018-03-04T19:35:33.680Z,7.67
2018-03-04T19:40:36.944Z,7.50
2018-03-04T19:45:40.144Z,9.70
2018-03-04T19:50:43.338Z,11.77
2018-03-04T19:55:46.671Z,12.13
2018-03-04T20:00:50.214Z,11.90
2018-03-04T20:05:53.658Z,14.23
2018-03-04T20:10:56.932Z,19.53
2018-03-04T20:16:00.558Z,19.00
2018-03-04T20:21:04.262Z,17.57
2018-03-04T20:26:07.538Z,17.03
2018-03-04T20:31:11.041Z,14.87
2018-03-04T20:36:14.420Z,12.13
2018-03-04T20:41:17.670Z,14.07
2018-03-04T20:46:20.899Z,15.67
2018-03-04T20:51:24.144Z,17.30
2018-03-04T20:56:27.426Z,19.97
2018-03-04T21:01:31.136Z,20.37
2018-03-04T21:06:34.933Z,25.23
2018-03-04T21:11:38.348Z,18.93
2018-03-04T21:16:41.669Z,23.20
2018-03-04T21:21:45.378Z,22.43
2018-03-04T21:26:48.704Z,17.00
2018-03-04T21:31:52.405Z,27.13
2018-03-04T21:36:55.681Z,16.20
2018-03-04T21:41:59.424Z,22.67
2018-03-04T21:47:02.937Z,23.57
2018-03-04T21:52:06.345Z,24.53
2018-03-04T21:57:09.552Z,17.73
2018-03-04T22:02:13.031Z,22.30
2018-03-04T22:07:16.422Z,24.90
2018-03-04T22:12:19.722Z,20.57
2018-03-04T22:17:23.288Z,20.47
2018-03-04T22:22:26.651Z,18.50
2018-03-04T22:27:30.060Z,18.10
2018-03-04T22:32:33.442Z,18.10
2018-03-04T22:37:36.860Z,17.03
2018-03-04T22:42:40.243Z,16.87
2018-03-04T22:47:43.515Z,15.43
2018-03-04T22:52:47.767Z,18.03
2018-03-04T22:57:51.001Z,16.63
2018-03-04T23:02:54.434Z,15.23
2018-03-04T23:07:57.683Z,11.93
2018-03-04T23:13:00.969Z,17.27
2018-03-04T23:18:04.440Z,13.50
2018-03-04T23:23:07.718Z,16.43
2018-03-04T23:28:11.331Z,21.87
2018-03-04T23:33:14.542Z,15.77
2018-03-04T23:38:18.203Z,11.27
2018-03-04T23:43:21.459Z,15.27
2018-03-04T23:48:25.068Z,11.90
2018-03-04T23:53:28.275Z,12.13
2018-03-04T23:58:31.490Z,14.03
